sensor_id;sensor_type;location;lat;lon;timestamp;pressure;altitude;pressure_sealevel;temperature;humidity
38163;BME280;23977;53.078;18.248;2023-11-19T00:01:11;101893.06;;;-0.40;100.00
38163;BME280;23977;53.078;18.248;2023-11-19T00:03:56;101944.63;;;-0.21;100.00
38163;BME280;23977;53.078;18.248;2023-11-19T00:06:22;101796.97;;;-1.23;100.00
38163;BME280;23977;53.078;18.248;2023-11-19T00:08:47;101797.31;;;-1.32;100.00
38163;BME280;23977;53.078;18.248;2023-11-19T00:11:13;101827.44;;;-1.23;100.00
38163;BME280;23977;53.078;18.248;2023-11-19T00:13:41;101783.00;;;-1.45;100.00
38163;BME280;23977;53.078;18.248;2023-11-19T00:16:07;101871.50;;;-0.90;100.00
38163;BME280;23977;53.078;18.248;2023-11-19T00:18:33;101810.97;;;-1.25;100.00
38163;BME280;23977;53.078;18.248;2023-11-19T00:20:59;101872.41;;;-0.91;100.00
38163;BME280;23977;53.078;18.248;2023-11-19T00:23:25;101799.72;;;-1.50;100.00
38163;BME280;23977;53.078;18.248;2023-11-19T00:25:50;101872.59;;;-0.96;100.00
38163;BME280;23977;53.078;18.248;2023-11-19T00:28:16;101796.06;;;-1.45;100.00
38163;BME280;23977;53.078;18.248;2023-11-19T00:30:42;101804.56;;;-1.40;100.00
38163;BME280;23977;53.078;18.248;2023-11-19T00:33:08;101887.34;;;-0.95;100.00
38163;BME280;23977;53.078;18.248;2023-11-19T00:35:34;101918.72;;;-0.71;100.00
38163;BME280;23977;53.078;18.248;2023-11-19T00:37:59;101911.66;;;-0.69;100.00
38163;BME280;23977;53.078;18.248;2023-11-19T00:40:26;101813.19;;;-1.38;100.00
38163;BME280;23977;53.078;18.248;2023-11-19T00:42:51;101710.16;;;-1.99;100.00
38163;BME280;23977;53.078;18.248;2023-11-19T00:45:17;101788.06;;;-1.64;100.00
38163;BME280;23977;53.078;18.248;2023-11-19T00:47:43;101808.22;;;-1.44;100.00
38163;BME280;23977;53.078;18.248;2023-11-19T00:50:09;101769.69;;;-1.61;100.00
38163;BME280;23977;53.078;18.248;2023-11-19T00:52:35;101765.59;;;-1.69;100.00
38163;BME280;23977;53.078;18.248;2023-11-19T00:55:02;101745.91;;;-1.54;100.00
38163;BME280;23977;53.078;18.248;2023-11-19T00:57:27;101833.91;;;-1.10;100.00
38163;BME280;23977;53.078;18.248;2023-11-19T00:59:53;101864.81;;;-0.98;100.00
38163;BME280;23977;53.078;18.248;2023-11-19T01:02:19;101860.78;;;-1.06;100.00
38163;BME280;23977;53.078;18.248;2023-11-19T01:04:44;101726.50;;;-1.94;100.00
38163;BME280;23977;53.078;18.248;2023-11-19T01:07:10;101748.97;;;-1.66;100.00
38163;BME280;23977;53.078;18.248;2023-11-19T01:09:38;101743.97;;;-1.49;100.00
38163;BME280;23977;53.078;18.248;2023-11-19T01:12:04;101722.00;;;-1.43;100.00
38163;BME280;23977;53.078;18.248;2023-11-19T01:14:30;101850.66;;;-0.92;100.00
38163;BME280;23977;53.078;18.248;2023-11-19T01:16:56;101803.41;;;-1.32;100.00
38163;BME280;23977;53.078;18.248;2023-11-19T01:19:22;101715.63;;;-1.81;100.00
38163;BME280;23977;53.078;18.248;2023-11-19T01:21:49;101815.94;;;-1.18;100.00
38163;BME280;23977;53.078;18.248;2023-11-19T01:24:15;101721.94;;;-1.89;100.00
38163;BME280;23977;53.078;18.248;2023-11-19T01:26:41;101795.94;;;-1.42;100.00
38163;BME280;23977;53.078;18.248;2023-11-19T01:29:14;101822.00;;;-1.17;100.00
38163;BME280;23977;53.078;18.248;2023-11-19T01:31:41;101727.75;;;-1.80;100.00
38163;BME280;23977;53.078;18.248;2023-11-19T01:34:07;101784.56;;;-1.40;100.00
38163;BME280;23977;53.078;18.248;2023-11-19T01:36:33;101818.75;;;-1.24;100.00
38163;BME280;23977;53.078;18.248;2023-11-19T01:38:59;101826.09;;;-1.34;100.00
38163;BME280;23977;53.078;18.248;2023-11-19T01:41:24;101682.78;;;-2.36;100.00
38163;BME280;23977;53.078;18.248;2023-11-19T01:43:50;101786.19;;;-1.61;100.00
38163;BME280;23977;53.078;18.248;2023-11-19T01:46:16;101783.47;;;-1.58;100.00
38163;BME280;23977;53.078;18.248;2023-11-19T01:48:45;101723.00;;;-1.93;100.00
38163;BME280;23977;53.078;18.248;2023-11-19T01:51:15;101682.72;;;-2.09;100.00
38163;BME280;23977;53.078;18.248;2023-11-19T01:53:43;101645.84;;;-2.24;100.00
38163;BME280;23977;53.078;18.248;2023-11-19T01:56:10;101750.53;;;-1.62;100.00
38163;BME280;23977;53.078;18.248;2023-11-19T01:58:37;101766.63;;;-1.27;100.00
38163;BME280;23977;53.078;18.248;2023-11-19T02:01:05;101717.44;;;-1.60;100.00
38163;BME280;23977;53.078;18.248;2023-11-19T02:03:31;101751.34;;;-0.92;100.00
38163;BME280;23977;53.078;18.248;2023-11-19T02:05:59;101755.44;;;-0.85;100.00
38163;BME280;23977;53.078;18.248;2023-11-19T02:08:25;101701.13;;;-1.43;100.00
38163;BME280;23977;53.078;18.248;2023-11-19T02:10:52;101698.00;;;-1.08;100.00
38163;BME280;23977;53.078;18.248;2023-11-19T02:13:18;101603.25;;;-1.55;100.00
38163;BME280;23977;53.078;18.248;2023-11-19T02:15:44;101626.53;;;-1.72;100.00
38163;BME280;23977;53.078;18.248;2023-11-19T02:18:17;101598.47;;;-2.11;100.00
38163;BME280;23977;53.078;18.248;2023-11-19T02:20:43;101587.03;;;-2.31;100.00
38163;BME280;23977;53.078;18.248;2023-11-19T02:23:09;101718.41;;;-1.40;100.00
38163;BME280;23977;53.078;18.248;2023-11-19T02:25:36;101523.78;;;-2.59;100.00
38163;BME280;23977;53.078;18.248;2023-11-19T02:28:03;101617.16;;;-2.00;100.00
38163;BME280;23977;53.078;18.248;2023-11-19T02:30:29;101579.75;;;-1.77;100.00
38163;BME280;23977;53.078;18.248;2023-11-19T02:33:00;101592.28;;;-1.87;100.00
38163;BME280;23977;53.078;18.248;2023-11-19T02:35:31;101584.72;;;-1.93;100.00
38163;BME280;23977;53.078;18.248;2023-11-19T02:37:58;101643.53;;;-1.62;100.00
38163;BME280;23977;53.078;18.248;2023-11-19T02:40:25;101705.19;;;-1.14;100.00
38163;BME280;23977;53.078;18.248;2023-11-19T02:42:53;101644.75;;;-1.49;100.00
38163;BME280;23977;53.078;18.248;2023-11-19T02:45:24;101570.09;;;-1.97;100.00
38163;BME280;23977;53.078;18.248;2023-11-19T02:47:51;101562.59;;;-1.82;100.00
38163;BME280;23977;53.078;18.248;2023-11-19T02:50:20;101673.06;;;-1.16;100.00
38163;BME280;23977;53.078;18.248;2023-11-19T02:52:52;101667.09;;;-1.19;100.00
38163;BME280;23977;53.078;18.248;2023-11-19T02:55:19;101529.94;;;-1.93;100.00
38163;BME280;23977;53.078;18.248;2023-11-19T02:57:45;101527.41;;;-1.94;100.00
38163;BME280;23977;53.078;18.248;2023-11-19T03:00:15;101654.34;;;-1.05;100.00
38163;BME280;23977;53.078;18.248;2023-11-19T03:02:41;101661.44;;;-1.08;100.00
38163;BME280;23977;53.078;18.248;2023-11-19T03:05:12;101589.88;;;-1.25;100.00
38163;BME280;23977;53.078;18.248;2023-11-19T03:07:43;101531.28;;;-1.82;100.00
38163;BME280;23977;53.078;18.248;2023-11-19T03:10:10;101525.69;;;-1.73;100.00
38163;BME280;23977;53.078;18.248;2023-11-19T03:12:43;101591.78;;;-1.08;100.00
38163;BME280;23977;53.078;18.248;2023-11-19T03:15:09;101525.84;;;-1.35;100.00
38163;BME280;23977;53.078;18.248;2023-11-19T03:17:41;101627.75;;;-0.73;100.00
38163;BME280;23977;53.078;18.248;2023-11-19T03:20:10;101464.44;;;-1.44;100.00
38163;BME280;23977;53.078;18.248;2023-11-19T03:22:36;101610.88;;;-0.46;100.00
38163;BME280;23977;53.078;18.248;2023-11-19T03:25:02;101550.22;;;-0.54;100.00
38163;BME280;23977;53.078;18.248;2023-11-19T03:27:28;101578.81;;;-0.30;100.00
38163;BME280;23977;53.078;18.248;2023-11-19T03:29:54;101595.84;;;-0.03;100.00
38163;BME280;23977;53.078;18.248;2023-11-19T03:32:19;101519.28;;;-0.63;100.00
38163;BME280;23977;53.078;18.248;2023-11-19T03:34:45;101474.69;;;-0.60;100.00
38163;BME280;23977;53.078;18.248;2023-11-19T03:37:11;101420.50;;;-0.76;100.00
38163;BME280;23977;53.078;18.248;2023-11-19T03:39:37;101426.44;;;-0.91;100.00
38163;BME280;23977;53.078;18.248;2023-11-19T03:42:02;101429.91;;;-0.71;100.00
38163;BME280;23977;53.078;18.248;2023-11-19T03:44:29;101421.44;;;-0.77;100.00
38163;BME280;23977;53.078;18.248;2023-11-19T03:46:54;101542.38;;;0.03;100.00
38163;BME280;23977;53.078;18.248;2023-11-19T03:49:20;101406.44;;;-0.54;100.00
38163;BME280;23977;53.078;18.248;2023-11-19T03:51:45;101411.63;;;-0.71;100.00
38163;BME280;23977;53.078;18.248;2023-11-19T03:54:11;101531.84;;;0.05;100.00
38163;BME280;23977;53.078;18.248;2023-11-19T03:56:37;101524.63;;;0.10;100.00
38163;BME280;23977;53.078;18.248;2023-11-19T03:59:03;101442.72;;;-0.29;100.00
38163;BME280;23977;53.078;18.248;2023-11-19T04:01:28;101421.50;;;-0.59;100.00
38163;BME280;23977;53.078;18.248;2023-11-19T04:03:54;101332.38;;;-1.10;100.00
38163;BME280;23977;53.078;18.248;2023-11-19T04:06:21;101379.19;;;-0.67;100.00
38163;BME280;23977;53.078;18.248;2023-11-19T04:08:47;101410.63;;;-0.50;100.00
38163;BME280;23977;53.078;18.248;2023-11-19T04:11:12;101427.69;;;-0.43;100.00
38163;BME280;23977;53.078;18.248;2023-11-19T04:13:38;101357.47;;;-0.50;100.00
38163;BME280;23977;53.078;18.248;2023-11-19T04:16:04;101402.19;;;-0.38;100.00
38163;BME280;23977;53.078;18.248;2023-11-19T04:18:30;101512.41;;;0.28;100.00
38163;BME280;23977;53.078;18.248;2023-11-19T04:20:57;101461.38;;;0.19;100.00
38163;BME280;23977;53.078;18.248;2023-11-19T04:23:23;101417.59;;;-0.14;100.00
38163;BME280;23977;53.078;18.248;2023-11-19T04:25:50;101492.66;;;0.57;100.00
38163;BME280;23977;53.078;18.248;2023-11-19T04:28:16;101363.34;;;-0.28;100.00
38163;BME280;23977;53.078;18.248;2023-11-19T04:30:41;101351.88;;;-0.25;100.00
38163;BME280;23977;53.078;18.248;2023-11-19T04:33:07;101418.25;;;0.44;100.00
38163;BME280;23977;53.078;18.248;2023-11-19T04:35:33;101331.81;;;-0.07;100.00
38163;BME280;23977;53.078;18.248;2023-11-19T04:37:59;101433.09;;;0.43;99.88
38163;BME280;23977;53.078;18.248;2023-11-19T04:40:24;101471.91;;;0.52;100.00
38163;BME280;23977;53.078;18.248;2023-11-19T04:42:50;101471.53;;;0.60;100.00
38163;BME280;23977;53.078;18.248;2023-11-19T04:45:16;101324.97;;;-0.10;100.00
38163;BME280;23977;53.078;18.248;2023-11-19T04:47:42;101455.88;;;0.76;100.00
38163;BME280;23977;53.078;18.248;2023-11-19T04:50:08;101331.72;;;-0.06;100.00
38163;BME280;23977;53.078;18.248;2023-11-19T04:52:38;101393.28;;;0.36;100.00
38163;BME280;23977;53.078;18.248;2023-11-19T04:55:10;101408.69;;;0.60;100.00
38163;BME280;23977;53.078;18.248;2023-11-19T04:57:37;101423.91;;;0.69;100.00
38163;BME280;23977;53.078;18.248;2023-11-19T05:00:04;101240.81;;;-0.53;100.00
38163;BME280;23977;53.078;18.248;2023-11-19T05:02:30;101418.97;;;0.63;100.00
38163;BME280;23977;53.078;18.248;2023-11-19T05:04:56;101292.19;;;0.01;100.00
38163;BME280;23977;53.078;18.248;2023-11-19T05:07:22;101205.97;;;-0.53;100.00
38163;BME280;23977;53.078;18.248;2023-11-19T05:09:48;101280.19;;;-0.21;100.00
38163;BME280;23977;53.078;18.248;2023-11-19T05:12:13;101295.06;;;-0.22;100.00
38163;BME280;23977;53.078;18.248;2023-11-19T05:14:39;101276.00;;;0.10;100.00
38163;BME280;23977;53.078;18.248;2023-11-19T05:17:05;101293.47;;;0.09;100.00
38163;BME280;23977;53.078;18.248;2023-11-19T05:19:30;101389.69;;;0.72;100.00
38163;BME280;23977;53.078;18.248;2023-11-19T05:21:56;101293.53;;;0.25;100.00
38163;BME280;23977;53.078;18.248;2023-11-19T05:24:22;101297.81;;;0.26;100.00
38163;BME280;23977;53.078;18.248;2023-11-19T05:26:48;101382.03;;;1.01;100.00
38163;BME280;23977;53.078;18.248;2023-11-19T05:29:15;101309.06;;;0.62;100.00
38163;BME280;23977;53.078;18.248;2023-11-19T05:31:41;101339.09;;;0.72;100.00
38163;BME280;23977;53.078;18.248;2023-11-19T05:34:07;101382.41;;;0.95;100.00
38163;BME280;23977;53.078;18.248;2023-11-19T05:36:32;101267.81;;;0.33;100.00
38163;BME280;23977;53.078;18.248;2023-11-19T05:38:58;101279.72;;;0.39;100.00
38163;BME280;23977;53.078;18.248;2023-11-19T05:41:24;101266.69;;;0.38;100.00
38163;BME280;23977;53.078;18.248;2023-11-19T05:43:49;101352.63;;;0.96;100.00
38163;BME280;23977;53.078;18.248;2023-11-19T05:46:15;101351.09;;;1.08;100.00
38163;BME280;23977;53.078;18.248;2023-11-19T05:48:41;101226.13;;;0.13;100.00
38163;BME280;23977;53.078;18.248;2023-11-19T05:51:07;101231.16;;;0.33;100.00
38163;BME280;23977;53.078;18.248;2023-11-19T05:53:33;101191.34;;;0.11;100.00
38163;BME280;23977;53.078;18.248;2023-11-19T05:55:59;101174.97;;;0.23;100.00
38163;BME280;23977;53.078;18.248;2023-11-19T05:58:29;101241.72;;;0.48;100.00
38163;BME280;23977;53.078;18.248;2023-11-19T06:00:56;101263.09;;;0.56;100.00
38163;BME280;23977;53.078;18.248;2023-11-19T06:03:22;101236.56;;;0.62;99.76
38163;BME280;23977;53.078;18.248;2023-11-19T06:05:49;101198.78;;;0.34;99.65
38163;BME280;23977;53.078;18.248;2023-11-19T06:08:15;101223.56;;;0.61;99.66
38163;BME280;23977;53.078;18.248;2023-11-19T06:10:43;101194.06;;;0.41;100.00
38163;BME280;23977;53.078;18.248;2023-11-19T06:13:12;101199.13;;;0.44;99.56
38163;BME280;23977;53.078;18.248;2023-11-19T06:15:41;101275.97;;;1.08;99.59
38163;BME280;23977;53.078;18.248;2023-11-19T06:18:07;101324.19;;;1.36;99.33
38163;BME280;23977;53.078;18.248;2023-11-19T06:20:34;101145.25;;;0.24;98.93
38163;BME280;23977;53.078;18.248;2023-11-19T06:23:00;101174.28;;;0.51;98.69
38163;BME280;23977;53.078;18.248;2023-11-19T06:25:26;101082.53;;;0.07;98.70
38163;BME280;23977;53.078;18.248;2023-11-19T06:27:52;101233.44;;;1.03;98.70
38163;BME280;23977;53.078;18.248;2023-11-19T06:30:18;101185.19;;;0.76;98.48
38163;BME280;23977;53.078;18.248;2023-11-19T06:32:44;101184.34;;;0.59;98.75
38163;BME280;23977;53.078;18.248;2023-11-19T06:35:10;101206.16;;;0.76;98.64
38163;BME280;23977;53.078;18.248;2023-11-19T06:37:38;101170.16;;;0.63;99.33
38163;BME280;23977;53.078;18.248;2023-11-19T06:40:04;101097.56;;;0.19;99.45
38163;BME280;23977;53.078;18.248;2023-11-19T06:42:30;101179.88;;;0.77;99.61
38163;BME280;23977;53.078;18.248;2023-11-19T06:44:56;101119.75;;;0.44;99.97
38163;BME280;23977;53.078;18.248;2023-11-19T06:47:26;101132.06;;;0.58;99.62
38163;BME280;23977;53.078;18.248;2023-11-19T06:49:52;101137.47;;;0.70;99.13
38163;BME280;23977;53.078;18.248;2023-11-19T06:52:18;101243.69;;;1.38;99.06
38163;BME280;23977;53.078;18.248;2023-11-19T06:54:44;101232.69;;;1.32;99.25
38163;BME280;23977;53.078;18.248;2023-11-19T06:57:11;101114.56;;;0.58;98.82
38163;BME280;23977;53.078;18.248;2023-11-19T06:59:37;101121.38;;;0.77;98.94
38163;BME280;23977;53.078;18.248;2023-11-19T07:02:03;101138.69;;;0.95;98.80
38163;BME280;23977;53.078;18.248;2023-11-19T07:04:31;101116.34;;;0.73;98.79
38163;BME280;23977;53.078;18.248;2023-11-19T07:06:56;101025.50;;;0.28;98.86
38163;BME280;23977;53.078;18.248;2023-11-19T07:09:22;101087.94;;;0.66;98.56
38163;BME280;23977;53.078;18.248;2023-11-19T07:11:48;101078.97;;;0.70;99.40
38163;BME280;23977;53.078;18.248;2023-11-19T07:14:18;101041.16;;;0.60;98.47
38163;BME280;23977;53.078;18.248;2023-11-19T07:16:45;101093.41;;;1.07;97.78
38163;BME280;23977;53.078;18.248;2023-11-19T07:19:12;101081.44;;;1.03;97.96
38163;BME280;23977;53.078;18.248;2023-11-19T07:21:41;101096.81;;;1.24;97.26
38163;BME280;23977;53.078;18.248;2023-11-19T07:24:10;101087.06;;;1.26;96.60
38163;BME280;23977;53.078;18.248;2023-11-19T07:26:43;101063.09;;;1.18;96.55
38163;BME280;23977;53.078;18.248;2023-11-19T07:29:09;101079.91;;;0.99;96.43
38163;BME280;23977;53.078;18.248;2023-11-19T07:31:35;101189.03;;;1.75;97.50
38163;BME280;23977;53.078;18.248;2023-11-19T07:34:01;101083.53;;;1.27;96.93
38163;BME280;23977;53.078;18.248;2023-11-19T07:36:27;101178.91;;;1.98;96.43
38163;BME280;23977;53.078;18.248;2023-11-19T07:38:53;101043.06;;;1.17;96.01
38163;BME280;23977;53.078;18.248;2023-11-19T07:41:18;101062.16;;;1.33;95.93
38163;BME280;23977;53.078;18.248;2023-11-19T07:43:45;100934.97;;;0.40;95.83
38163;BME280;23977;53.078;18.248;2023-11-19T07:46:13;101079.28;;;1.24;96.38
38163;BME280;23977;53.078;18.248;2023-11-19T07:48:39;101036.31;;;1.13;96.58
38163;BME280;23977;53.078;18.248;2023-11-19T07:51:05;101025.78;;;0.98;96.19
38163;BME280;23977;53.078;18.248;2023-11-19T07:53:31;101018.53;;;1.03;96.62
38163;BME280;23977;53.078;18.248;2023-11-19T07:55:58;101157.63;;;1.88;96.55
38163;BME280;23977;53.078;18.248;2023-11-19T07:58:25;101106.47;;;1.66;95.82
38163;BME280;23977;53.078;18.248;2023-11-19T08:00:51;101143.84;;;1.99;95.94
38163;BME280;23977;53.078;18.248;2023-11-19T08:03:17;101056.19;;;1.45;96.18
38163;BME280;23977;53.078;18.248;2023-11-19T08:05:45;101131.97;;;1.93;95.86
38163;BME280;23977;53.078;18.248;2023-11-19T08:08:12;100977.13;;;0.94;95.92
38163;BME280;23977;53.078;18.248;2023-11-19T08:10:37;101017.41;;;1.22;96.34
38163;BME280;23977;53.078;18.248;2023-11-19T08:13:03;101079.84;;;1.73;96.21
38163;BME280;23977;53.078;18.248;2023-11-19T08:15:29;100957.66;;;0.98;95.62
38163;BME280;23977;53.078;18.248;2023-11-19T08:17:56;101037.44;;;1.52;95.78
38163;BME280;23977;53.078;18.248;2023-11-19T08:20:22;101010.63;;;1.46;95.92
38163;BME280;23977;53.078;18.248;2023-11-19T08:22:47;100996.78;;;1.44;95.64
38163;BME280;23977;53.078;18.248;2023-11-19T08:25:13;100926.03;;;1.01;95.03
38163;BME280;23977;53.078;18.248;2023-11-19T08:27:39;101000.91;;;1.48;95.52
38163;BME280;23977;53.078;18.248;2023-11-19T08:30:05;100918.34;;;1.13;95.53
38163;BME280;23977;53.078;18.248;2023-11-19T08:32:32;100941.75;;;1.16;95.61
38163;BME280;23977;53.078;18.248;2023-11-19T08:34:58;100988.00;;;1.45;95.62
38163;BME280;23977;53.078;18.248;2023-11-19T08:37:24;100900.00;;;0.98;95.42
38163;BME280;23977;53.078;18.248;2023-11-19T08:39:50;101076.53;;;2.12;95.50
38163;BME280;23977;53.078;18.248;2023-11-19T08:42:19;100872.50;;;0.91;95.45
38163;BME280;23977;53.078;18.248;2023-11-19T08:44:49;100963.78;;;1.69;96.10
38163;BME280;23977;53.078;18.248;2023-11-19T08:47:17;100995.44;;;1.66;95.58
38163;BME280;23977;53.078;18.248;2023-11-19T08:49:45;100839.59;;;0.87;94.81
38163;BME280;23977;53.078;18.248;2023-11-19T08:52:11;101025.00;;;1.97;95.55
38163;BME280;23977;53.078;18.248;2023-11-19T08:54:37;100910.66;;;1.24;95.58
38163;BME280;23977;53.078;18.248;2023-11-19T08:57:03;101038.88;;;1.99;96.45
38163;BME280;23977;53.078;18.248;2023-11-19T08:59:30;101029.47;;;2.09;96.60
38163;BME280;23977;53.078;18.248;2023-11-19T09:01:56;101017.50;;;1.91;96.46
38163;BME280;23977;53.078;18.248;2023-11-19T09:04:21;100852.94;;;1.11;95.97
38163;BME280;23977;53.078;18.248;2023-11-19T09:06:50;100924.09;;;1.46;96.27
38163;BME280;23977;53.078;18.248;2023-11-19T09:09:15;100830.78;;;0.88;96.41
38163;BME280;23977;53.078;18.248;2023-11-19T09:11:41;100918.44;;;1.67;96.54
38163;BME280;23977;53.078;18.248;2023-11-19T09:14:07;100830.34;;;1.23;96.15
38163;BME280;23977;53.078;18.248;2023-11-19T09:16:33;100898.34;;;1.80;96.13
38163;BME280;23977;53.078;18.248;2023-11-19T09:18:59;100904.50;;;2.07;94.53
38163;BME280;23977;53.078;18.248;2023-11-19T09:21:28;100954.34;;;2.34;94.50
38163;BME280;23977;53.078;18.248;2023-11-19T09:23:56;100989.28;;;2.62;94.23
38163;BME280;23977;53.078;18.248;2023-11-19T09:26:22;100987.59;;;2.61;95.05
38163;BME280;23977;53.078;18.248;2023-11-19T09:28:48;100929.53;;;2.38;94.62
38163;BME280;23977;53.078;18.248;2023-11-19T09:31:17;100975.75;;;2.93;93.98
38163;BME280;23977;53.078;18.248;2023-11-19T09:33:44;100871.44;;;2.43;93.99
38163;BME280;23977;53.078;18.248;2023-11-19T09:36:14;100965.31;;;3.05;93.58
38163;BME280;23977;53.078;18.248;2023-11-19T09:38:43;100950.81;;;2.61;95.10
38163;BME280;23977;53.078;18.248;2023-11-19T09:41:10;100845.19;;;2.30;95.20
38163;BME280;23977;53.078;18.248;2023-11-19T09:43:39;100923.47;;;3.02;95.04
38163;BME280;23977;53.078;18.248;2023-11-19T09:46:06;100836.28;;;2.45;94.34
38163;BME280;23977;53.078;18.248;2023-11-19T09:48:35;100896.94;;;3.05;94.99
38163;BME280;23977;53.078;18.248;2023-11-19T09:51:01;100794.44;;;2.16;94.54
38163;BME280;23977;53.078;18.248;2023-11-19T09:53:28;100918.44;;;2.99;94.63
38163;BME280;23977;53.078;18.248;2023-11-19T09:55:55;100810.84;;;2.33;94.64
38163;BME280;23977;53.078;18.248;2023-11-19T09:58:21;100895.59;;;2.86;95.00
38163;BME280;23977;53.078;18.248;2023-11-19T10:00:49;100791.72;;;2.31;94.92
38163;BME280;23977;53.078;18.248;2023-11-19T10:03:15;100789.72;;;2.47;94.80
38163;BME280;23977;53.078;18.248;2023-11-19T10:05:42;100812.53;;;2.34;93.72
38163;BME280;23977;53.078;18.248;2023-11-19T10:08:08;100758.56;;;2.04;94.80
38163;BME280;23977;53.078;18.248;2023-11-19T10:10:34;100848.53;;;2.83;94.49
38163;BME280;23977;53.078;18.248;2023-11-19T10:13:00;100772.81;;;2.38;94.30
38163;BME280;23977;53.078;18.248;2023-11-19T10:15:26;100746.97;;;2.19;93.97
38163;BME280;23977;53.078;18.248;2023-11-19T10:17:56;100777.41;;;2.61;94.12
38163;BME280;23977;53.078;18.248;2023-11-19T10:20:22;100754.47;;;2.63;94.35
38163;BME280;23977;53.078;18.248;2023-11-19T10:22:48;100684.53;;;2.12;93.56
38163;BME280;23977;53.078;18.248;2023-11-19T10:25:27;100694.06;;;2.26;93.69
38163;BME280;23977;53.078;18.248;2023-11-19T10:27:54;100835.31;;;3.09;93.99
38163;BME280;23977;53.078;18.248;2023-11-19T10:30:24;100742.44;;;2.47;94.06
38163;BME280;23977;53.078;18.248;2023-11-19T10:35:37;100646.31;;;1.95;94.70
38163;BME280;23977;53.078;18.248;2023-11-19T10:38:15;100733.94;;;2.44;94.70
38163;BME280;23977;53.078;18.248;2023-11-19T10:40:41;100786.53;;;3.05;94.78
38163;BME280;23977;53.078;18.248;2023-11-19T10:43:08;100730.91;;;2.74;94.82
38163;BME280;23977;53.078;18.248;2023-11-19T10:45:35;100735.88;;;2.66;95.07
38163;BME280;23977;53.078;18.248;2023-11-19T10:48:02;100818.53;;;3.23;95.13
38163;BME280;23977;53.078;18.248;2023-11-19T10:50:28;100771.00;;;3.02;94.68
38163;BME280;23977;53.078;18.248;2023-11-19T10:52:57;100815.03;;;3.35;95.12
38163;BME280;23977;53.078;18.248;2023-11-19T10:55:31;100736.97;;;2.87;95.29
38163;BME280;23977;53.078;18.248;2023-11-19T10:58:08;100813.16;;;3.24;95.01
38163;BME280;23977;53.078;18.248;2023-11-19T11:00:52;100805.22;;;3.13;96.23
38163;BME280;23977;53.078;18.248;2023-11-19T11:03:20;100761.63;;;2.61;97.08
38163;BME280;23977;53.078;18.248;2023-11-19T11:05:49;100798.72;;;2.82;97.91
38163;BME280;23977;53.078;18.248;2023-11-19T11:08:16;100708.56;;;2.18;98.49
38163;BME280;23977;53.078;18.248;2023-11-19T11:10:53;100623.56;;;1.82;98.41
38163;BME280;23977;53.078;18.248;2023-11-19T11:13:19;100597.44;;;1.68;98.49
38163;BME280;23977;53.078;18.248;2023-11-19T11:15:45;100779.31;;;2.95;98.50
38163;BME280;23977;53.078;18.248;2023-11-19T11:18:13;100666.78;;;2.15;98.19
38163;BME280;23977;53.078;18.248;2023-11-19T11:20:39;100670.75;;;2.08;99.53
38163;BME280;23977;53.078;18.248;2023-11-19T11:29:04;100754.47;;;2.63;99.83
38163;BME280;23977;53.078;18.248;2023-11-19T11:34:58;100513.81;;;1.14;100.00
38163;BME280;23977;53.078;18.248;2023-11-19T11:37:32;100738.88;;;2.35;100.00
38163;BME280;23977;53.078;18.248;2023-11-19T11:39:58;100708.78;;;2.28;100.00
38163;BME280;23977;53.078;18.248;2023-11-19T11:50:16;100594.41;;;1.74;100.00
38163;BME280;23977;53.078;18.248;2023-11-19T11:55:26;100567.59;;;1.45;100.00
38163;BME280;23977;53.078;18.248;2023-11-19T11:57:54;100677.78;;;2.20;100.00
38163;BME280;23977;53.078;18.248;2023-11-19T12:02:56;100573.88;;;1.55;100.00
38163;BME280;23977;53.078;18.248;2023-11-19T12:05:22;100533.72;;;1.29;100.00
38163;BME280;23977;53.078;18.248;2023-11-19T12:08:01;100578.03;;;1.58;100.00
38163;BME280;23977;53.078;18.248;2023-11-19T12:10:49;100551.19;;;1.41;100.00
38163;BME280;23977;53.078;18.248;2023-11-19T12:13:16;100526.69;;;1.29;100.00
38163;BME280;23977;53.078;18.248;2023-11-19T12:18:28;100511.91;;;1.16;100.00
38163;BME280;23977;53.078;18.248;2023-11-19T12:20:55;100630.16;;;2.01;100.00
38163;BME280;23977;53.078;18.248;2023-11-19T12:23:24;100623.28;;;2.11;100.00
38163;BME280;23977;53.078;18.248;2023-11-19T12:25:50;100531.03;;;1.55;100.00
38163;BME280;23977;53.078;18.248;2023-11-19T12:28:16;100586.63;;;1.85;100.00
38163;BME280;23977;53.078;18.248;2023-11-19T12:30:44;100453.63;;;1.12;100.00
38163;BME280;23977;53.078;18.248;2023-11-19T12:33:11;100490.84;;;1.30;100.00
38163;BME280;23977;53.078;18.248;2023-11-19T12:35:43;100510.22;;;1.40;100.00
38163;BME280;23977;53.078;18.248;2023-11-19T12:40:45;100458.88;;;0.99;100.00
38163;BME280;23977;53.078;18.248;2023-11-19T12:43:21;100452.69;;;1.00;100.00
38163;BME280;23977;53.078;18.248;2023-11-19T12:45:46;100548.38;;;1.44;100.00
38163;BME280;23977;53.078;18.248;2023-11-19T12:48:12;100526.97;;;1.38;100.00
38163;BME280;23977;53.078;18.248;2023-11-19T12:50:54;100444.00;;;0.87;100.00
38163;BME280;23977;53.078;18.248;2023-11-19T12:53:21;100469.25;;;1.01;100.00
38163;BME280;23977;53.078;18.248;2023-11-19T12:55:47;100559.78;;;1.69;100.00
38163;BME280;23977;53.078;18.248;2023-11-19T12:58:32;100597.75;;;1.76;100.00
38163;BME280;23977;53.078;18.248;2023-11-19T13:01:05;100487.69;;;0.99;100.00
38163;BME280;23977;53.078;18.248;2023-11-19T13:03:34;100507.81;;;1.37;100.00
38163;BME280;23977;53.078;18.248;2023-11-19T13:06:04;100564.34;;;1.91;100.00
38163;BME280;23977;53.078;18.248;2023-11-19T13:08:43;100453.59;;;1.25;100.00
38163;BME280;23977;53.078;18.248;2023-11-19T13:11:11;100543.41;;;1.78;100.00